• Join FlightAware (Why Join?)
  • Login
  • US Flag 
04:19AM EDT


 

Airport Tracker/Info


-or-


 

Live Flight TrackerFlight Track Log ✈ SWA1202 ✈ 30-Apr-2013 ✈ KABQ - KLAX

Flight Track Log - Related Links

Times and Time Zones

All times are in EDT time to prevent confusion due to time zone crossing. See the SWA1202 flight status page for this flight to view local times or setup timezone preferences in your user account.

Time Position Orientation Groundspeed Altitude Reporting Facility
EDT Latitude Longitude Course Direction KTS MPH feet Rate Location/Type
03:50PM 35.0458 -106.6772 273° West 218 251 7,700  Level Albuquerque Center
03:51PM 35.0475 -106.7122 273° West 189 217 8,700 1,740 Climbing Albuquerque Center
03:51PM 35.0539 -106.7608 279° West 267 307 9,500 1,800 Climbing Albuquerque Center
03:52PM 35.0586 -106.8017 278° West 236 272 10,600 2,460 Climbing Albuquerque Center
03:52PM 35.0636 -106.8542 277° West 289 333 12,000 2,700 Climbing Albuquerque Center
03:53PM 35.0708 -106.9072 279° West 270 311 13,400 2,280 Climbing Albuquerque Center
03:54PM 35.0814 -107.0089 277° West 295 339 15,700 2,160 Climbing Albuquerque Center
03:55PM 35.0925 -107.1119 278° West 302 348 17,900 1,500 Climbing Albuquerque Center
03:56PM 35.1050 -107.2281 278° West 335 386 18,800 1,320 Climbing Albuquerque Center
03:57PM 35.1033 -107.3606 269° West 380 437 20,700 1,860 Climbing Albuquerque Center
03:58PM 35.0936 -107.4908 265° West 388 447 22,700 1,620 Climbing Albuquerque Center
03:59PM 35.0850 -107.6269 266° West 396 456 24,100 1,500 Climbing Albuquerque Center
04:00PM 35.0722 -107.7956 265° West 412 474 25,800 1,500 Climbing Albuquerque Center
04:01PM 35.0633 -107.9264 265° West 419 482 27,300 1,740 Climbing Albuquerque Center
04:02PM 35.0517 -108.0869 265° West 423 487 29,400 1,620 Climbing Albuquerque Center
04:03PM 35.0414 -108.2203 265° West 416 479 30,700 1,320 Climbing Albuquerque Center
04:04PM 35.0300 -108.3758 265° West 412 474 32,200 1,260 Climbing Albuquerque Center
04:05PM 35.0194 -108.5094 265° West 412 474 33,400 1,260 Climbing Albuquerque Center
04:06PM 35.0064 -108.6631 264° West 409 471 34,800 1,080 Climbing Albuquerque Center
04:07PM 34.9972 -108.7942 265° West 406 467 35,700 540 Climbing Albuquerque Center
04:08PM 34.9861 -108.9258 264° West 405 466 36,000 120 Climbing Albuquerque Center
04:09PM 34.9728 -109.0792 264° West 406 467 36,000  Level Albuquerque Center
04:10PM 34.9631 -109.2092 265° West 404 465 36,000  Level Albuquerque Center
04:11PM 34.9539 -109.3608 266° West 401 461 36,000  Level Albuquerque Center
04:12PM 34.9442 -109.4892 265° West 399 459 36,000  Level Albuquerque Center
04:13PM 34.9347 -109.6169 265° West 395 455 36,000  Level Albuquerque Center
04:14PM 34.9244 -109.7683 265° West 399 459 36,000  Level Albuquerque Center
04:16PM 34.9158 -109.9000 265° West 403 464 36,000  Level Albuquerque Center
04:17PM 34.9039 -110.0519 265° West 403 464 36,000  Level Albuquerque Center
04:18PM 34.8961 -110.1822 266° West 405 466 36,000  Level Albuquerque Center
04:19PM 34.9206 -110.3258 282° West 406 467 36,000  Level Albuquerque Center
04:20PM 34.9883 -110.4208 311° West 393 452 36,000  Level Albuquerque Center
04:21PM 35.0669 -110.5306 311° West 387 445 36,000  Level Albuquerque Center
04:22PM 35.1364 -110.6258 312° West 388 447 36,000  Level Albuquerque Center
04:23PM 35.1889 -110.7322 301° West 395 455 36,000  Level Albuquerque Center
04:24PM 35.1606 -110.8794 257° West 400 460 36,000  Level Albuquerque Center
04:25PM 35.1353 -111.0050 256° West 399 459 36,000  Level Albuquerque Center
04:26PM 35.1131 -111.1497 259° West 416 479 36,000  Level Albuquerque Center
04:27PM 35.0869 -111.2828 257° West 410 472 36,000  Level Albuquerque Center
04:28PM 35.0606 -111.4164 256° West 407 468 36,000  Level Albuquerque Center
04:29PM 35.0278 -111.5772 256° West 408 470 36,000  Level Albuquerque Center
04:30PM 35.0014 -111.7100 256° West 407 468 36,000  Level Albuquerque Center
04:31PM 34.9756 -111.8414 257° West 407 468 36,000  Level Albuquerque Center
04:32PM 34.9486 -111.9750 256° West 407 468 36,000  Level Albuquerque Center
04:33PM 34.9214 -112.1097 256° West 408 470 36,000  Level Albuquerque Center
04:34PM 34.8933 -112.2433 256° West 409 471 36,000  Level Albuquerque Center
04:35PM 34.8614 -112.4050 257° West 409 471 36,000  Level Albuquerque Center
04:36PM 34.8331 -112.5397 256° West 410 472 36,000  Level Albuquerque Center
04:37PM 34.8047 -112.6744 256° West 411 473 36,000  Level Albuquerque Center
04:38PM 34.7761 -112.8097 256° West 412 474 36,000  Level Albuquerque Center
04:39PM 34.7475 -112.9444 256° West 411 473 36,000  Level Albuquerque Center
04:40PM 34.7178 -113.0803 255° West 415 478 36,000  Level Albuquerque Center
04:41PM 34.6900 -113.2156 256° West 414 476 36,000  Level Albuquerque Center
04:42PM 34.6553 -113.3797 256° West 417 480 36,000  Level Albuquerque Center
04:43PM 34.6256 -113.5153 255° West 418 481 36,000  Level Albuquerque Center
04:44PM 34.5972 -113.6492 256° West 415 478 36,000  Level Albuquerque Center
04:45PM 34.5661 -113.7822 254° West 409 471 36,000  Level Albuquerque Center
04:46PM 34.5364 -113.9183 255° West 411 473 36,000  Level Albuquerque Center
04:47PM 34.5064 -114.0522 255° West 411 473 36,000  Level Albuquerque Center
04:48PM 34.4833 -114.1625 256° West 405 466 36,000  Level Los Angeles Center
04:50PM 34.4233 -114.4264 255° West 406 467 36,000  Level Los Angeles Center
04:51PM 34.3939 -114.5583 255° West 406 467 36,000  Level Los Angeles Center
04:52PM 34.3639 -114.6897 255° West 406 467 36,000 -60 Level Los Angeles Center
04:53PM 34.3339 -114.8214 255° West 406 467 35,900 -660 Descending Los Angeles Center
04:54PM 34.2975 -114.9792 254° West 407 468 34,700 -1,020 Descending Los Angeles Center
04:55PM 34.2658 -115.1119 254° West 411 473 33,800 -900 Descending Los Angeles Center
04:56PM 34.2353 -115.2450 255° West 411 473 32,900 -900 Descending Los Angeles Center
04:57PM 34.2031 -115.3797 254° West 416 479 32,000 -960 Descending Los Angeles Center
04:59PM 34.1831 -115.5214 260° West 424 488 31,000 -1,020 Descending Los Angeles Center
05:00PM 34.1600 -115.6886 261° West 424 488 29,900 -540 Descending Los Angeles Center
05:01PM 34.1406 -115.8303 261° West 427 491 30,000  Climbing Los Angeles Center
05:02PM 34.1200 -115.9739 260° West 433 498 30,000  Level Los Angeles Center
05:03PM 34.0992 -116.1189 260° West 437 503 30,000 -60 Level Los Angeles Center
05:04PM 34.0789 -116.2622 260° West 437 503 29,900 -540 Descending Los Angeles Center
05:05PM 34.0589 -116.4011 260° West 429 494 29,000 -1,680 Descending Los Angeles Center
05:06PM 34.0358 -116.5639 260° West 417 480 26,500 -2,280 Descending Los Angeles Center
05:07PM 34.0156 -116.6972 260° West 409 471 24,300 -2,160 Descending Los Angeles Center
05:08PM 33.9969 -116.8258 260° West 394 453 22,100 -2,340 Descending Los Angeles Center
05:09PM 33.9833 -116.9500 263° West 367 422 19,900 -2,040 Descending Southern California TRACON
05:10PM 33.9667 -117.0667 260° West 352 405 18,300 -1,560 Descending Southern California TRACON
05:11PM 33.9500 -117.1667 259° West 322 371 16,800 -900 Descending Southern California TRACON
05:13PM 33.9333 -117.3833 265° West 317 365 15,700 -960 Descending Southern California TRACON
05:14PM 33.9667 -117.4667 296° West 297 342 14,000 -1,620 Descending Southern California TRACON
05:15PM 34.0000 -117.5667 292° West 289 333 12,500 -1,560 Descending Southern California TRACON
05:16PM 34.0333 -117.6500 296° West 324 373 10,900 -1,440 Descending Southern California TRACON
05:17PM 34.0167 -117.7500 259° West 262 302 9,700 -1,380 Descending Southern California TRACON
05:18PM 34.0167 -117.8333 270° West 270 311 8,200 -1,200 Descending Southern California TRACON
05:19PM 34.0000 -117.9167 256° West 251 289 7,400 -1,020 Descending Southern California TRACON
05:20PM 34.0000 -118.0000 270° West 229 264 6,200 -1,020 Descending Southern California TRACON
05:21PM 33.9833 -118.0667 253° West 209 241 5,400 -960 Descending Southern California TRACON
05:22PM 33.9833 -118.1333 270° West 184 212 4,300 -1,320 Descending Southern California TRACON
05:22PM 33.9761 -118.1689 256° West 190 219 3,400 -1,200 Descending Los Angeles Center
05:23PM 33.9697 -118.2333 263° West 194 223 2,400 -660 Descending Los Angeles Center
05:24PM 33.9636 -118.2894 263° West 183 211 2,100 -600 Descending Los Angeles Center
05:25PM 33.9589 -118.3386 263° West 164 189 1,200 -780 Descending Los Angeles Center
05:26PM 33.9550 -118.3864 264° West 152 175 500 -480 Descending Los Angeles Center
05:27PM 33.9500 -118.4244 261° West 124 143 200 -300 Descending Los Angeles Center
05:31PM 33.9425 -118.4081 140° Southeast  Level Estimated